Time;durP1;ratioP1;P1;durP2;ratioP2;P2;SDS_P1;SDS_P2;PMS_P1;PMS_P2;Temp;Humidity;BMP_temperature;BMP_pressure;BME280_temperature;BME280_humidity;BME280_pressure;Samples;Min_cycle;Max_cycle;Signal;HPM_P1;HPM_P2
2022/09/30 00:03:53;;;;;;;8.90;5.38;;;;;;;8.34;100.00;98947.72;12194712;19;20014;-77
2022/09/30 00:07:54;;;;;;;;;;;;;;;8.47;100.00;98949.28;12207772;19;20119;-77
2022/09/30 00:11:56;;;;;;;13.82;5.07;;;;;;;8.58;100.00;98954.63;12206046;19;19915;-77
2022/09/30 00:15:58;;;;;;;19.27;5.57;;;;;;;8.72;100.00;98951.47;12181819;19;20034;-77
2022/09/30 00:20:00;;;;;;;8.77;4.78;;;;;;;8.84;100.00;98944.75;12202490;19;20027;-77
2022/09/30 00:24:03;;;;;;;10.68;5.53;;;;;;;8.96;100.00;98950.06;12204278;19;20467;-77
2022/09/30 00:28:06;;;;;;;;;;;;;;;9.04;100.00;98941.38;12182132;19;20034;-77
2022/09/30 00:32:08;;;;;;;7.43;4.93;;;;;;;9.13;100.00;98948.03;12198463;19;19971;-78
2022/09/30 00:36:10;;;;;;;10.32;4.25;;;;;;;9.22;100.00;98945.63;12190399;19;20002;-76
2022/09/30 00:40:12;;;;;;;15.90;5.22;;;;;;;9.28;100.00;98950.09;12214329;19;20034;-77
2022/09/30 00:44:51;;;;;;;6.88;4.20;;;;;;;9.33;100.00;98952.03;12216763;19;20507;-77
2022/09/30 00:48:55;;;;;;;11.30;3.83;;;;;;;9.34;100.00;98951.78;12193768;19;20014;-77
2022/09/30 00:53:06;;;;;;;8.93;4.00;;;;;;;9.38;100.00;98954.84;12217290;19;20057;-76
2022/09/30 00:57:08;;;;;;;10.48;4.40;;;;;;;9.38;100.00;98946.59;12207053;19;20034;-76
2022/09/30 01:01:10;;;;;;;10.25;4.75;;;;;;;9.42;100.00;98958.69;12217274;19;20006;-76
2022/09/30 01:05:12;;;;;;;7.03;4.15;;;;;;;9.48;100.00;98960.41;12216076;19;20012;-76
2022/09/30 01:09:14;;;;;;;10.98;4.45;;;;;;;9.44;100.00;98964.78;12193434;19;20029;-76
2022/09/30 01:13:17;;;;;;;9.35;4.03;;;;;;;9.44;100.00;98963.94;12211754;19;20386;-76
2022/09/30 01:17:35;;;;;;;7.78;4.00;;;;;;;9.48;100.00;98967.81;12212570;19;20617;-77
2022/09/30 01:21:46;;;;;;;6.78;3.90;;;;;;;9.48;100.00;98968.66;12190121;19;20006;-77
2022/09/30 01:26:13;;;;;;;8.55;5.00;;;;;;;9.47;100.00;98975.25;12211312;19;20522;-77
2022/09/30 01:30:38;;;;;;;12.52;5.75;;;;;;;9.46;100.00;98986.50;12191083;19;20010;-76
2022/09/30 01:35:20;;;;;;;12.90;6.82;;;;;;;9.39;100.00;98975.72;12213331;19;20014;-76
2022/09/30 01:39:49;;;;;;;11.45;6.55;;;;;;;9.38;100.00;98976.00;12189760;19;20010;-76
2022/09/30 01:44:05;;;;;;;12.32;6.35;;;;;;;9.40;100.00;98977.41;12212701;19;20019;-76
2022/09/30 01:48:18;;;;;;;15.57;7.40;;;;;;;9.43;100.00;98981.53;12212795;19;20034;-76
2022/09/30 01:52:22;;;;;;;13.57;6.30;;;;;;;9.40;100.00;98982.03;12192010;19;20017;-77
2022/09/30 01:56:39;;;;;;;10.93;6.45;;;;;;;9.40;100.00;98976.56;12215421;19;20063;-76
2022/09/30 02:00:43;;;;;;;12.32;6.55;;;;;;;9.44;100.00;98981.28;12192164;19;20095;-76
2022/09/30 02:04:52;;;;;;;10.38;5.85;;;;;;;9.49;100.00;98983.25;12213118;19;20014;-76
2022/09/30 02:09:04;;;;;;;11.23;6.50;;;;;;;9.53;100.00;98971.44;12211560;19;20035;-76
2022/09/30 02:13:27;;;;;;;12.80;7.55;;;;;;;9.55;100.00;98974.78;12191588;19;20380;-76
2022/09/30 02:17:34;;;;;;;11.93;6.95;;;;;;;9.53;100.00;98979.69;12210588;19;20070;-76
2022/09/30 02:21:39;;;;;;;13.35;6.18;;;;;;;9.54;100.00;98988.78;12192425;19;20010;-77
2022/09/30 02:25:46;;;;;;;10.95;6.18;;;;;;;9.52;100.00;98996.47;12205009;19;20010;-75
2022/09/30 02:29:54;;;;;;;14.52;6.85;;;;;;;9.44;100.00;98995.03;12212089;19;20018;-77
2022/09/30 02:34:02;;;;;;;17.35;6.43;;;;;;;9.35;100.00;98993.84;12186677;19;20381;-77
2022/09/30 02:38:13;;;;;;;13.15;6.30;;;;;;;9.25;100.00;98991.84;12211072;19;20010;-77
2022/09/30 02:42:21;;;;;;;10.57;6.45;;;;;;;9.21;100.00;98996.19;12191909;19;20081;-77
2022/09/30 02:46:31;;;;;;;9.02;5.82;;;;;;;9.17;100.00;98986.00;12211980;19;20015;-76
2022/09/30 02:50:47;;;;;;;13.93;6.20;;;;;;;9.10;100.00;98997.19;12216100;19;20023;-77
2022/09/30 02:55:18;;;;;;;18.15;7.03;;;;;;;9.01;100.00;98996.84;12192034;19;20010;-77
2022/09/30 02:59:21;;;;;;;14.55;7.43;;;;;;;8.91;100.00;99007.72;12212870;19;20439;-77
2022/09/30 03:03:31;;;;;;;15.63;7.00;;;;;;;8.79;100.00;99018.84;12193072;19;20030;-78
2022/09/30 03:07:34;;;;;;;12.57;7.20;;;;;;;8.66;100.00;99019.25;12215572;19;20482;-77
2022/09/30 03:11:37;;;;;;;15.38;7.55;;;;;;;8.53;100.00;99019.63;12213426;19;20074;-77
2022/09/30 03:15:47;;;;;;;14.10;6.30;;;;;;;8.40;100.00;99015.38;12186053;19;20017;-77
2022/09/30 03:20:01;;;;;;;13.77;6.75;;;;;;;8.27;100.00;99015.69;12213171;19;20030;-76
2022/09/30 03:24:22;;;;;;;11.20;6.03;;;;;;;8.12;100.00;99022.66;12212109;19;20017;-78
2022/09/30 03:28:28;;;;;;;12.90;6.38;;;;;;;7.94;100.00;99020.19;12190498;19;20556;-77
2022/09/30 03:32:57;;;;;;;13.82;6.97;;;;;;;7.75;100.00;99025.94;12206656;19;20006;-75
2022/09/30 03:37:25;;;;;;;;;;;;;;;;;;;;;
2022/09/30 03:41:40;;;;;;;15.50;6.03;;;;;;;7.68;100.00;99029.94;12209599;19;20006;-77
2022/09/30 03:45:51;;;;;;;16.90;6.20;;;;;;;7.63;100.00;99030.69;12187567;19;20010;-77
2022/09/30 03:49:59;;;;;;;13.57;6.32;;;;;;;7.52;100.00;99034.34;12205210;19;20011;-76
2022/09/30 03:54:00;;;;;;;10.80;6.55;;;;;;;7.41;100.00;99044.31;12205880;19;20002;-77
2022/09/30 03:58:02;;;;;;;12.90;6.90;;;;;;;7.31;100.00;99038.63;12185120;19;20010;-77
2022/09/30 04:02:05;;;;;;;14.45;7.28;;;;;;;7.22;100.00;99045.59;12202285;19;20010;-76
2022/09/30 04:06:11;;;;;;;11.38;6.00;;;;;;;7.13;100.00;99042.44;12206660;19;20006;-76
2022/09/30 04:10:13;;;;;;;13.93;6.22;;;;;;;7.09;100.00;99046.75;12184242;19;20014;-77
2022/09/30 04:14:14;;;;;;;13.65;6.90;;;;;;;7.10;100.00;99040.19;12203663;19;20536;-76
2022/09/30 04:18:16;;;;;;;14.77;6.45;;;;;;;7.13;100.00;99053.41;12178920;19;20018;-77
2022/09/30 04:22:18;;;;;;;16.73;7.28;;;;;;;7.07;100.00;99051.63;12206912;19;19999;-78
2022/09/30 04:26:24;;;;;;;13.77;6.28;;;;;;;7.03;100.00;99056.78;12207261;19;20029;-77
2022/09/30 04:30:26;;;;;;;12.27;5.93;;;;;;;7.02;100.00;99055.13;12184476;19;20018;-77
2022/09/30 04:34:33;;;;;;;10.98;5.90;;;;;;;7.01;100.00;99061.66;12205462;19;20003;-77
2022/09/30 04:38:38;;;;;;;13.60;5.10;;;;;;;6.97;100.00;99067.91;12206673;19;20018;-77
2022/09/30 04:42:41;;;;;;;10.73;5.97;;;;;;;6.85;100.00;99082.47;12219220;19;20018;-77
2022/09/30 04:46:43;;;;;;;13.27;6.43;;;;;;;6.73;100.00;99086.31;12241982;19;20018;-76
2022/09/30 04:50:45;;;;;;;10.88;6.57;;;;;;;6.65;100.00;99083.94;12254992;19;20002;-77
2022/09/30 04:54:46;;;;;;;10.55;6.00;;;;;;;6.58;100.00;99089.56;12232344;19;20035;-78
2022/09/30 04:58:48;;;;;;;15.52;5.88;;;;;;;6.55;100.00;99088.13;12223138;19;20011;-80
2022/09/30 05:02:50;;;;;;;12.63;6.07;;;;;;;6.53;100.00;99094.94;12210031;19;20011;-78
2022/09/30 05:06:51;;;;;;;14.02;5.80;;;;;;;6.50;100.00;99103.63;12184306;19;20070;-80
2022/09/30 05:10:59;;;;;;;14.07;5.90;;;;;;;6.44;100.00;99099.09;12201582;19;20014;-80
2022/09/30 05:15:01;;;;;;;15.90;6.05;;;;;;;6.42;100.00;99101.25;12205426;19;20015;-79
2022/09/30 05:19:02;;;;;;;11.70;5.60;;;;;;;6.35;100.00;99096.72;12216714;19;20074;-79
2022/09/30 05:23:05;;;;;;;13.90;5.45;;;;;;;6.27;100.00;99105.28;12220608;19;20671;-80
2022/09/30 05:27:06;;;;;;;13.80;5.27;;;;;;;6.25;100.00;99104.72;12233735;19;20011;-81
2022/09/30 05:31:08;;;;;;;16.35;6.25;;;;;;;6.29;100.00;99105.91;12205420;19;20030;-80
2022/09/30 05:35:12;;;;;;;13.88;5.03;;;;;;;6.30;100.00;99121.22;12226367;19;20386;-80
2022/09/30 05:39:13;;;;;;;13.77;5.82;;;;;;;6.25;100.00;99129.34;12207507;19;20006;-80
2022/09/30 05:43:15;;;;;;;11.90;5.40;;;;;;;6.15;100.00;99143.59;12230032;19;20403;-80
2022/09/30 05:47:17;;;;;;;14.18;5.35;;;;;;;6.13;100.00;99158.63;12226042;19;20027;-80
2022/09/30 05:51:18;;;;;;;10.50;5.55;;;;;;;6.14;100.00;99163.00;12206216;19;20023;-80
2022/09/30 05:55:21;;;;;;;;;;;;;;;6.17;100.00;99176.22;12223488;19;20006;-80
2022/09/30 05:59:23;;;;;;;12.35;5.18;;;;;;;6.20;100.00;99178.47;12226507;19;19911;-80
2022/09/30 06:03:25;;;;;;;12.38;5.75;;;;;;;6.18;100.00;99188.81;12199110;19;20002;-80
2022/09/30 06:07:27;;;;;;;12.18;5.97;;;;;;;6.15;100.00;99192.00;12222505;19;20015;-80
2022/09/30 06:11:28;;;;;;;10.18;5.10;;;;;;;6.13;100.00;99191.44;12218999;19;20074;-78
2022/09/30 06:15:30;;;;;;;17.20;5.72;;;;;;;6.14;100.00;99202.13;12198129;19;20031;-79
2022/09/30 06:19:32;;;;;;;11.90;5.30;;;;;;;6.14;100.00;99187.63;12222116;19;20031;-81
2022/09/30 06:23:34;;;;;;;9.48;5.25;;;;;;;6.20;100.00;99199.53;12212329;19;20006;-79
2022/09/30 06:27:37;;;;;;;13.98;6.50;;;;;;;6.20;100.00;99203.09;12201047;19;20467;-79
2022/09/30 06:31:39;;;;;;;11.15;6.15;;;;;;;6.13;100.00;99200.47;12217073;19;20034;-80
2022/09/30 06:35:41;;;;;;;11.27;4.03;;;;;;;6.10;100.00;99197.38;12218907;19;20011;-80
2022/09/30 06:39:43;;;;;;;12.20;5.90;;;;;;;6.14;100.00;99204.88;12196786;19;20111;-80
2022/09/30 06:43:45;;;;;;;16.80;5.82;;;;;;;6.24;100.00;99204.28;12217599;19;20498;-78
2022/09/30 06:47:55;;;;;;;13.48;5.93;;;;;;;6.35;100.00;99210.84;12220704;19;20007;-80
2022/09/30 06:52:01;;;;;;;15.13;6.50;;;;;;;6.47;100.00;99224.53;12196332;19;20011;-80
2022/09/30 06:56:03;;;;;;;11.05;5.78;;;;;;;6.59;100.00;99233.56;12217119;19;20019;-80
2022/09/30 07:00:06;;;;;;;15.75;7.90;;;;;;;6.73;100.00;99247.88;12221704;19;20703;-80
2022/09/30 07:04:09;;;;;;;16.87;7.60;;;;;;;6.78;100.00;99243.34;12196115;19;20416;-80
2022/09/30 07:08:11;;;;;;;16.55;8.13;;;;;;;6.92;100.00;99246.66;12217932;19;20502;-80
2022/09/30 07:12:13;;;;;;;19.27;8.00;;;;;;;7.13;100.00;99247.91;12195438;19;20007;-81
2022/09/30 07:16:17;;;;;;;13.80;8.02;;;;;;;7.33;100.00;99255.75;12214442;19;20074;-81
2022/09/30 07:20:19;;;;;;;15.00;8.60;;;;;;;7.50;100.00;99261.31;12219904;19;20084;-79
2022/09/30 07:24:20;;;;;;;15.00;8.00;;;;;;;7.65;100.00;99258.03;12198924;19;20044;-79
2022/09/30 07:28:26;;;;;;;16.58;8.75;;;;;;;7.75;100.00;99263.72;12230064;19;20487;-81
2022/09/30 07:32:28;;;;;;;18.60;9.30;;;;;;;7.92;100.00;99272.81;12221498;19;20441;-79
2022/09/30 07:36:30;;;;;;;18.60;9.10;;;;;;;8.13;100.00;99279.53;12198586;19;20622;-82
2022/09/30 07:40:34;;;;;;;13.90;8.43;;;;;;;8.31;100.00;99285.88;12219919;19;20750;-82
2022/09/30 07:44:40;;;;;;;13.68;7.72;;;;;;;8.52;100.00;99287.91;12216789;19;20345;-83
2022/09/30 07:48:47;;;;;;;15.75;8.07;;;;;;;8.75;100.00;99288.84;12198706;19;20018;-82
2022/09/30 07:52:52;;;;;;;13.27;8.05;;;;;;;8.94;100.00;99286.63;12220509;19;20010;-78
2022/09/30 07:56:54;;;;;;;16.23;7.60;;;;;;;9.19;100.00;99288.91;12217909;19;20038;-79
2022/09/30 08:01:13;;;;;;;14.63;7.38;;;;;;;9.51;100.00;99286.31;12204140;19;20013;-80
2022/09/30 08:05:15;;;;;;;14.38;8.88;;;;;;;9.84;100.00;99296.34;12217914;19;20082;-82
2022/09/30 08:09:19;;;;;;;11.77;7.30;;;;;;;10.02;100.00;99292.41;12195893;19;20015;-82
2022/09/30 08:13:21;;;;;;;14.10;8.25;;;;;;;10.26;100.00;99295.69;12215316;19;20010;-83
2022/09/30 08:17:23;;;;;;;15.02;7.25;;;;;;;10.51;100.00;99302.59;12217037;19;20006;-81
2022/09/30 08:21:25;;;;;;;13.45;6.93;;;;;;;10.79;100.00;99313.28;12197296;19;20034;-81
2022/09/30 08:25:27;;;;;;;10.75;6.47;;;;;;;11.07;100.00;99308.53;12213582;19;20391;-81
2022/09/30 08:29:29;;;;;;;13.32;6.82;;;;;;;11.28;100.00;99310.31;12215240;19;20013;-80
2022/09/30 08:33:52;;;;;;;14.88;7.10;;;;;;;11.54;100.00;99313.19;12190097;19;20007;-77
2022/09/30 08:37:54;;;;;;;11.75;7.32;;;;;;;11.75;100.00;99326.03;12210003;19;20014;-82
2022/09/30 08:42:34;;;;;;;9.55;6.13;;;;;;;12.01;100.00;99320.63;12216000;19;20014;-79
2022/09/30 08:47:12;;;;;;;16.33;6.22;;;;;;;12.12;100.00;99321.47;12195436;19;20045;-81
2022/09/30 08:51:27;;;;;;;11.85;6.63;;;;;;;12.23;100.00;99325.94;12192584;19;20027;-80
2022/09/30 08:55:41;;;;;;;10.50;6.25;;;;;;;12.59;100.00;99328.75;12219069;19;20017;-82
2022/09/30 09:00:06;;;;;;;12.63;6.78;;;;;;;12.70;100.00;99314.69;12227601;19;20033;-83
2022/09/30 09:04:08;;;;;;;10.82;5.57;;;;;;;12.90;100.00;99321.28;12206555;19;20006;-78
2022/09/30 09:08:20;;;;;;;10.05;5.78;;;;;;;13.14;100.00;99316.84;12225233;19;20122;-77
2022/09/30 09:12:54;;;;;;;11.07;5.63;;;;;;;13.48;100.00;99330.09;12203279;19;20006;-82
2022/09/30 09:17:13;;;;;;;14.77;6.78;;;;;;;13.68;100.00;99330.06;12223148;19;20034;-81
2022/09/30 09:21:30;;;;;;;8.93;5.90;;;;;;;14.00;100.00;99325.19;12202145;19;20518;-82
2022/09/30 09:25:32;;;;;;;12.18;5.95;;;;;;;14.27;100.00;99317.28;12221312;19;20010;-81
2022/09/30 09:29:49;;;;;;;10.90;5.70;;;;;;;14.41;100.00;99323.03;12220854;19;20034;-78
2022/09/30 09:33:51;;;;;;;12.52;6.32;;;;;;;14.58;98.27;99315.19;12198698;19;20018;-80
2022/09/30 09:38:24;;;;;;;14.48;6.00;;;;;;;14.89;94.78;99314.94;12220326;19;20763;-78
2022/09/30 09:42:39;;;;;;;11.70;5.82;;;;;;;15.04;91.09;99317.56;12200413;19;19998;-80
2022/09/30 09:47:12;;;;;;;10.18;5.72;;;;;;;15.29;89.95;99321.25;12222567;19;20499;-77
2022/09/30 09:51:33;;;;;;;11.10;6.18;;;;;;;15.53;88.98;99334.31;12202386;19;20336;-79
2022/09/30 09:55:35;;;;;;;9.85;6.32;;;;;;;15.71;86.71;99328.03;12219798;19;20006;-79
2022/09/30 09:59:55;;;;;;;9.95;6.20;;;;;;;15.89;85.54;99335.59;12222983;19;20395;-79
2022/09/30 10:04:10;;;;;;;13.00;6.25;;;;;;;15.97;83.03;99334.09;12200700;19;20014;-79
2022/09/30 10:08:18;;;;;;;11.15;5.93;;;;;;;16.08;83.41;99335.63;12217899;19;20018;-81
2022/09/30 10:12:27;;;;;;;11.73;5.82;;;;;;;16.17;83.26;99344.13;12198654;19;20019;-79
2022/09/30 10:16:34;;;;;;;7.82;5.97;;;;;;;16.31;82.29;99347.84;12218762;19;20003;-81
2022/09/30 10:20:36;;;;;;;13.57;5.95;;;;;;;16.37;80.62;99332.72;12219879;19;20017;-79
2022/09/30 10:24:38;;;;;;;7.50;5.25;;;;;;;16.49;79.30;99340.63;12203954;19;20014;-79
2022/09/30 10:28:58;;;;;;;8.77;5.22;;;;;;;16.59;77.99;99337.69;12216564;19;20094;-80
2022/09/30 10:33:03;;;;;;;9.02;4.78;;;;;;;16.70;78.39;99338.38;12216645;19;20041;-81
2022/09/30 10:37:13;;;;;;;10.38;5.28;;;;;;;16.68;77.22;99326.69;12196753;19;20010;-78
2022/09/30 10:41:22;;;;;;;8.32;5.28;;;;;;;16.83;76.64;99320.91;12222527;19;20030;-81
2022/09/30 10:45:37;;;;;;;8.73;4.60;;;;;;;16.91;75.59;99313.84;12199325;19;20007;-79
2022/09/30 10:49:49;;;;;;;6.03;3.45;;;;;;;17.13;74.71;99315.97;12221643;19;20056;-81
2022/09/30 10:53:51;;;;;;;7.38;4.30;;;;;;;17.36;72.75;99319.75;12222479;19;20081;-80
2022/09/30 10:57:54;;;;;;;8.70;3.20;;;;;;;17.46;72.77;99319.56;12199986;19;20970;-81
2022/09/30 11:02:12;;;;;;;9.25;3.60;;;;;;;17.58;69.30;99316.28;12221836;19;20034;-82
2022/09/30 11:06:14;;;;;;;9.57;4.22;;;;;;;17.63;67.73;99323.69;12204008;19;20078;-81
2022/09/30 11:10:31;;;;;;;5.93;3.58;;;;;;;17.77;68.21;99319.81;12219558;19;20033;-79
2022/09/30 11:14:43;;;;;;;6.10;3.92;;;;;;;17.82;66.58;99312.47;12220908;19;20010;-80
2022/09/30 11:18:59;;;;;;;6.43;3.60;;;;;;;17.95;66.23;99318.03;12213526;19;20007;-81
2022/09/30 11:23:10;;;;;;;8.98;3.53;;;;;;;17.99;66.33;99316.31;12249711;19;20003;-80
2022/09/30 11:27:42;;;;;;;7.10;3.75;;;;;;;18.06;64.47;99310.31;12221662;19;20010;-80
2022/09/30 11:31:56;;;;;;;8.73;3.55;;;;;;;18.51;64.02;99317.97;12212756;19;20021;-81
2022/09/30 11:36:01;;;;;;;7.63;3.65;;;;;;;18.75;63.10;99317.69;12212661;19;20459;-81
2022/09/30 11:40:27;;;;;;;5.28;3.08;;;;;;;19.05;61.52;99330.91;12207315;19;20538;-80
2022/09/30 11:44:40;;;;;;;6.55;3.17;;;;;;;19.73;60.85;99322.44;12260071;19;20054;-79
2022/09/30 11:49:19;;;;;;;5.50;3.05;;;;;;;20.38;57.67;99318.81;12230933;19;20022;-79
2022/09/30 11:53:47;;;;;;;5.88;2.97;;;;;;;20.61;53.90;99318.69;12251545;19;20014;-80
2022/09/30 11:57:58;;;;;;;5.95;2.90;;;;;;;21.10;53.67;99305.34;12212444;19;20014;-82
2022/09/30 12:02:42;;;;;;;6.00;2.70;;;;;;;21.02;49.49;99317.38;12222767;19;20006;-81
2022/09/30 12:07:23;;;;;;;5.03;2.22;;;;;;;21.38;49.06;99309.41;12202007;19;20009;-81
2022/09/30 12:11:39;;;;;;;6.85;2.70;;;;;;;21.80;46.78;99311.56;12223621;19;20367;-80
2022/09/30 12:15:43;;;;;;;6.18;2.63;;;;;;;21.73;43.67;99314.91;12198197;19;20011;-81
2022/09/30 12:19:49;;;;;;;6.43;2.42;;;;;;;22.62;44.62;99322.50;12219333;19;20034;-80
2022/09/30 12:24:23;;;;;;;4.45;3.00;;;;;;;22.94;43.86;99334.97;12221268;19;20058;-80
2022/09/30 12:33:10;;;;;;;5.72;2.30;;;;;;;23.17;40.60;99327.84;12224794;19;20014;-81
2022/09/30 12:37:25;;;;;;;4.50;2.10;;;;;;;23.81;40.05;99320.03;12206274;19;20042;-81
2022/09/30 12:41:29;;;;;;;4.15;1.98;;;;;;;23.95;39.74;99320.50;12229160;19;20007;-80
2022/09/30 12:45:30;;;;;;;3.35;2.40;;;;;;;22.91;41.73;99332.84;12204014;19;20007;-82
2022/09/30 12:49:35;;;;;;;6.50;2.60;;;;;;;22.67;43.47;99331.53;12222800;19;20396;-83
2022/09/30 12:53:39;;;;;;;8.30;2.38;;;;;;;23.14;42.42;99336.97;12227226;19;20011;-82
2022/09/30 12:57:42;;;;;;;4.30;2.42;;;;;;;22.97;42.36;99335.13;12200652;19;20014;-82
2022/09/30 13:01:45;;;;;;;6.05;2.33;;;;;;;22.04;43.01;99337.03;12236687;19;20006;-83
2022/09/30 13:06:05;;;;;;;3.47;2.17;;;;;;;21.07;43.65;99325.59;12243078;19;20017;-82
2022/09/30 13:10:27;;;;;;;4.38;2.22;;;;;;;20.32;45.85;99324.91;12202888;19;20011;-82
2022/09/30 13:14:38;;;;;;;8.48;2.47;;;;;;;20.08;46.46;99330.91;12228610;19;20122;-81
2022/09/30 13:18:41;;;;;;;5.10;2.72;;;;;;;20.27;46.87;99331.47;12205094;19;20517;-81
2022/09/30 13:22:43;;;;;;;;;;;;;;;19.65;46.82;99329.63;12233963;19;20357;-82
2022/09/30 13:26:47;;;;;;;5.28;2.40;;;;;;;19.21;47.52;99336.09;12229289;19;19910;-81
2022/09/30 13:30:49;;;;;;;3.50;1.88;;;;;;;19.39;46.87;99329.44;12201184;19;20006;-81
2022/09/30 13:34:55;;;;;;;3.90;1.73;;;;;;;19.72;46.69;99321.63;12223125;19;20010;-82
2022/09/30 13:39:18;;;;;;;5.32;2.15;;;;;;;19.46;46.63;99323.44;12223500;19;20010;-82
2022/09/30 13:43:33;;;;;;;;;;;;;;;19.00;48.29;99331.00;12204960;19;20014;-81
2022/09/30 13:48:02;;;;;;;3.53;1.73;;;;;;;18.47;48.55;99325.28;12224447;19;20003;-82
2022/09/30 13:52:16;;;;;;;1.92;1.35;;;;;;;18.15;49.47;99321.56;12195666;19;20021;-82
2022/09/30 13:56:27;;;;;;;5.65;1.77;;;;;;;18.05;49.09;99322.56;12223505;19;20014;-81
2022/09/30 14:01:01;;;;;;;4.05;1.85;;;;;;;17.89;50.25;99322.06;12204282;19;20018;-82
2022/09/30 14:05:24;;;;;;;2.53;1.42;;;;;;;17.70;50.98;99322.16;12227635;19;20007;-79
2022/09/30 14:10:14;;;;;;;3.15;1.45;;;;;;;17.64;52.08;99315.03;12203975;19;20403;-81
2022/09/30 14:14:37;;;;;;;4.43;1.90;;;;;;;17.56;51.72;99307.38;12217856;19;20018;-80
2022/09/30 14:19:03;;;;;;;3.30;1.60;;;;;;;17.45;52.47;99308.72;12197661;19;20014;-80
2022/09/30 14:23:15;;;;;;;4.20;1.83;;;;;;;17.36;52.73;99308.59;12225148;19;20015;-82
2022/09/30 14:27:23;;;;;;;5.43;2.28;;;;;;;17.47;52.71;99298.91;12202067;19;20034;-81
2022/09/30 14:31:25;;;;;;;6.13;2.22;;;;;;;17.68;51.83;99313.28;12217799;19;20007;-80
2022/09/30 14:35:32;;;;;;;3.25;1.50;;;;;;;17.95;51.19;99308.88;12220621;19;20017;-79
2022/09/30 14:39:34;;;;;;;4.22;1.60;;;;;;;18.01;50.79;99313.19;12199393;19;20034;-79
2022/09/30 14:43:41;;;;;;;3.20;1.65;;;;;;;17.81;50.11;99313.63;12226267;19;20011;-81
2022/09/30 14:47:46;;;;;;;4.28;2.08;;;;;;;17.96;50.68;99310.50;12223321;19;20010;-80
2022/09/30 14:51:48;;;;;;;4.82;1.60;;;;;;;18.05;50.52;99303.06;12192532;19;20063;-79
2022/09/30 14:55:49;;;;;;;3.90;1.30;;;;;;;18.34;50.66;99310.25;12214037;19;20021;-79
2022/09/30 14:59:51;;;;;;;6.07;2.03;;;;;;;18.38;50.78;99302.88;12245385;19;20017;-79
2022/09/30 15:04:14;;;;;;;3.45;1.65;;;;;;;18.28;50.40;99305.91;12238094;19;20003;-79
2022/09/30 15:08:19;;;;;;;;;;;;;;;18.13;50.30;99307.91;12259160;19;20014;-78
2022/09/30 15:12:24;;;;;;;3.80;1.85;;;;;;;18.04;51.05;99304.19;12222978;19;19911;-81
2022/09/30 15:16:28;;;;;;;2.92;1.40;;;;;;;17.87;51.58;99295.66;12225451;19;20578;-80
2022/09/30 15:20:34;;;;;;;3.70;1.90;;;;;;;17.82;51.60;99298.53;12198877;19;20014;-80
2022/09/30 15:24:39;;;;;;;2.83;1.42;;;;;;;17.83;51.82;99298.25;12193032;19;20019;-80
2022/09/30 15:28:42;;;;;;;6.15;2.58;;;;;;;17.73;52.68;99288.09;12199685;19;20086;-79
2022/09/30 15:32:46;;;;;;;6.10;1.77;;;;;;;17.51;53.15;99285.19;12202557;19;20324;-80
2022/09/30 15:37:08;;;;;;;3.92;1.80;;;;;;;17.31;53.31;99297.53;12194138;19;20011;-80
2022/09/30 15:41:10;;;;;;;4.72;1.95;;;;;;;17.13;53.54;99293.69;12224807;19;20011;-78
2022/09/30 15:45:32;;;;;;;3.65;1.50;;;;;;;16.97;54.38;99283.97;12216284;19;20467;-79
2022/09/30 15:49:36;;;;;;;4.43;1.90;;;;;;;16.81;54.54;99291.78;12202122;19;20022;-80
2022/09/30 15:53:37;;;;;;;3.78;1.80;;;;;;;16.70;55.10;99285.50;12224062;19;20052;-80
2022/09/30 15:57:47;;;;;;;5.15;2.00;;;;;;;16.50;55.52;99280.25;12201291;19;20463;-81
2022/09/30 16:01:51;;;;;;;2.92;1.85;;;;;;;16.44;56.19;99287.84;12222358;19;20014;-79
2022/09/30 16:06:04;;;;;;;6.57;2.13;;;;;;;16.34;56.53;99280.50;12224787;19;20050;-80
2022/09/30 16:10:18;;;;;;;5.65;2.70;;;;;;;16.25;57.09;99287.06;12209872;19;20035;-81
2022/09/30 16:14:23;;;;;;;2.88;1.90;;;;;;;16.13;57.27;99287.50;12250893;19;20051;-79
2022/09/30 16:18:27;;;;;;;7.75;2.85;;;;;;;15.98;57.96;99284.94;12203683;19;20007;-78
2022/09/30 16:22:49;;;;;;;5.28;2.45;;;;;;;15.83;58.74;99286.78;12222915;19;20011;-79
2022/09/30 16:26:53;;;;;;;5.05;2.45;;;;;;;15.75;58.56;99281.88;12223774;19;20010;-79
2022/09/30 16:30:55;;;;;;;4.75;2.10;;;;;;;15.59;59.47;99285.94;12201184;19;20006;-81
2022/09/30 16:34:57;;;;;;;3.42;1.75;;;;;;;15.49;59.74;99284.91;12218775;19;20037;-81
2022/09/30 16:38:59;;;;;;;4.60;2.38;;;;;;;15.40;60.05;99285.84;12216959;19;20018;-82
2022/09/30 16:43:03;;;;;;;9.13;4.57;;;;;;;15.23;60.64;99300.22;12198129;19;20011;-81
2022/09/30 16:47:11;;;;;;;7.95;4.57;;;;;;;15.09;61.29;99299.25;12222044;19;20482;-82
2022/09/30 16:51:15;;;;;;;7.50;3.20;;;;;;;14.90;62.42;99302.75;12231120;19;19999;-82
2022/09/30 16:55:17;;;;;;;5.78;2.40;;;;;;;14.73;64.31;99305.09;12199774;19;20015;-82
2022/09/30 16:59:19;;;;;;;6.43;2.47;;;;;;;14.52;65.70;99316.34;12219767;19;20014;-82
2022/09/30 17:03:21;;;;;;;7.57;2.65;;;;;;;14.30;67.68;99310.34;12196200;19;20798;-81
2022/09/30 17:07:22;;;;;;;4.82;2.78;;;;;;;14.05;68.47;99301.06;12214669;19;20056;-82
2022/09/30 17:11:30;;;;;;;8.77;3.63;;;;;;;13.88;69.22;99311.69;12215801;19;20021;-81
2022/09/30 17:15:32;;;;;;;6.22;2.28;;;;;;;13.71;70.11;99303.72;12192110;19;20053;-81
2022/09/30 17:19:34;;;;;;;5.88;2.55;;;;;;;13.51;70.86;99304.63;12228252;19;20003;-82
2022/09/30 17:23:39;;;;;;;8.13;2.55;;;;;;;13.36;72.09;99312.97;12229934;19;20015;-81
2022/09/30 17:27:41;;;;;;;7.07;2.50;;;;;;;13.18;73.29;99317.97;12217124;19;20010;-80
2022/09/30 17:31:43;;;;;;;6.57;2.70;;;;;;;13.02;74.32;99324.59;12237779;19;20365;-80
2022/09/30 17:35:58;;;;;;;8.23;3.03;;;;;;;12.87;75.87;99319.09;12231438;19;20007;-80
2022/09/30 17:40:00;;;;;;;7.40;2.45;;;;;;;12.72;76.52;99326.25;12209943;19;20070;-80
2022/09/30 17:44:01;;;;;;;8.73;2.88;;;;;;;12.60;77.32;99322.94;12225718;19;20011;-80
2022/09/30 17:48:06;;;;;;;4.25;2.30;;;;;;;12.50;78.15;99336.75;12233629;19;20014;-83
2022/09/30 17:52:08;;;;;;;8.35;2.20;;;;;;;12.37;79.33;99331.75;12206396;19;20003;-80
2022/09/30 17:56:18;;;;;;;6.95;2.80;;;;;;;12.26;80.52;99330.91;12228680;19;20395;-82
2022/09/30 18:00:21;;;;;;;6.25;2.30;;;;;;;12.17;80.72;99338.06;12207543;19;20013;-82
2022/09/30 18:04:27;;;;;;;7.53;2.50;;;;;;;12.08;81.81;99337.78;12227797;19;20895;-83
2022/09/30 18:08:29;;;;;;;6.80;2.70;;;;;;;11.98;82.49;99335.78;12227075;19;20014;-82
2022/09/30 18:12:33;;;;;;;5.82;2.80;;;;;;;11.91;83.25;99356.47;12203952;19;20029;-79
2022/09/30 18:16:34;;;;;;;5.53;2.78;;;;;;;11.85;83.71;99366.66;12225753;19;20010;-81
2022/09/30 18:20:43;;;;;;;7.97;3.05;;;;;;;11.81;84.53;99366.34;12225047;19;20063;-81
2022/09/30 18:29:06;;;;;;;5.35;2.40;;;;;;;11.74;84.22;99374.03;12228218;19;20079;-82
2022/09/30 18:33:08;;;;;;;3.10;2.05;;;;;;;11.70;84.22;99364.63;12225873;19;20141;-82
2022/09/30 18:37:10;;;;;;;9.48;2.90;;;;;;;11.68;84.24;99374.28;12199605;19;20006;-81
2022/09/30 18:41:12;;;;;;;5.13;2.80;;;;;;;11.63;84.61;99369.56;12225449;19;20014;-82
2022/09/30 18:45:14;;;;;;;8.55;2.72;;;;;;;11.60;84.83;99364.56;12224277;19;20082;-82
2022/09/30 18:49:15;;;;;;;3.70;2.30;;;;;;;11.57;85.17;99359.56;12203902;19;20046;-82
2022/09/30 18:53:20;;;;;;;7.30;2.95;;;;;;;11.55;85.48;99356.28;12228644;19;20012;-81
2022/09/30 18:57:21;;;;;;;10.18;3.58;;;;;;;11.53;85.91;99351.00;12226553;19;20047;-81
2022/09/30 19:01:23;;;;;;;6.78;3.40;;;;;;;11.48;86.80;99337.22;12257046;19;20006;-84
2022/09/30 19:05:26;;;;;;;6.22;3.95;;;;;;;11.47;86.80;99343.81;12252513;19;20007;-83
2022/09/30 19:09:28;;;;;;;10.18;4.00;;;;;;;11.45;86.92;99336.88;12201912;19;20054;-81
2022/09/30 19:13:30;;;;;;;6.97;3.58;;;;;;;11.43;87.32;99347.38;12226204;19;20639;-81
2022/09/30 19:17:32;;;;;;;7.93;3.92;;;;;;;11.37;87.69;99350.09;12224064;19;20024;-82
2022/09/30 19:21:35;;;;;;;6.95;3.00;;;;;;;11.37;87.43;99344.59;12200527;19;20003;-82
2022/09/30 19:25:40;;;;;;;5.75;2.92;;;;;;;11.34;87.62;99347.88;12225846;19;20459;-83